Time;durP1;ratioP1;P1;durP2;ratioP2;P2;SDS_P1;SDS_P2;PMS_P1;PMS_P2;Temp;Humidity;BMP_temperature;BMP_pressure;BME280_temperature;BME280_humidity;BME280_pressure;Samples;Min_cycle;Max_cycle;Signal;HPM_P1;HPM_P2
2022/02/18 00:01:07;;;;;;;24.33;3.65;;;;;;;6.79;82.20;100737.06;6276160;22;20450;-65
2022/02/18 00:03:37;;;;;;;28.58;4.95;;;;;;;6.80;82.30;100744.00;6276219;22;20016;-65
2022/02/18 00:06:05;;;;;;;26.88;4.60;;;;;;;6.90;81.87;100734.34;6274074;22;20047;-65
2022/02/18 00:08:32;;;;;;;26.48;4.28;;;;;;;6.72;81.90;100734.13;6274178;22;20377;-65
2022/02/18 00:10:59;;;;;;;31.50;4.60;;;;;;;6.87;81.97;100729.34;6274746;22;20099;-65
2022/02/18 00:13:26;;;;;;;30.48;5.03;;;;;;;6.86;81.26;100726.84;6275887;22;20019;-65
2022/02/18 00:15:53;;;;;;;25.85;4.25;;;;;;;6.91;81.51;100722.84;6276319;22;20020;-65
2022/02/18 00:18:19;;;;;;;32.85;4.32;;;;;;;6.92;81.88;100731.59;6249032;22;20081;-65
2022/02/18 00:20:46;;;;;;;36.33;4.93;;;;;;;6.92;81.32;100721.03;6274732;22;20016;-65
2022/02/18 00:23:13;;;;;;;32.90;4.78;;;;;;;6.83;82.36;100721.84;6276357;22;20015;-65
2022/02/18 00:25:40;;;;;;;32.58;4.88;;;;;;;6.89;82.02;100729.22;6275784;22;20020;-65
2022/02/18 00:28:07;;;;;;;31.83;4.50;;;;;;;6.73;82.31;100722.63;6275968;22;20061;-65
2022/02/18 00:30:34;;;;;;;31.58;5.57;;;;;;;6.85;81.90;100739.19;6274476;22;20393;-65
2022/02/18 00:33:00;;;;;;;27.20;3.92;;;;;;;6.68;82.75;100729.25;6275873;22;20070;-65
2022/02/18 00:35:27;;;;;;;30.65;4.28;;;;;;;6.78;82.48;100734.56;6249155;22;20030;-65
2022/02/18 00:37:54;;;;;;;39.03;6.45;;;;;;;6.81;82.37;100726.41;6273353;22;20066;-65
2022/02/18 00:40:25;;;;;;;38.13;4.55;;;;;;;6.89;82.01;100735.34;6250015;22;20020;-65
2022/02/18 00:42:52;;;;;;;37.35;4.45;;;;;;;6.90;81.99;100737.00;6248903;22;20020;-65
2022/02/18 00:45:19;;;;;;;37.40;5.18;;;;;;;6.89;81.53;100732.72;6248991;22;20030;-65
2022/02/18 00:47:47;;;;;;;27.52;4.97;;;;;;;6.72;82.65;100728.00;6276301;22;20019;-65
2022/02/18 00:50:14;;;;;;;26.55;4.60;;;;;;;6.84;81.83;100728.75;6274775;22;20083;-66
2022/02/18 00:52:40;;;;;;;40.15;4.95;;;;;;;6.84;81.92;100716.44;6249251;22;20377;-65
2022/02/18 00:55:08;;;;;;;27.92;4.32;;;;;;;6.82;82.34;100728.06;6276155;22;20022;-65
2022/02/18 00:57:36;;;;;;;38.15;4.68;;;;;;;6.92;81.51;100719.25;6274466;22;20402;-65
2022/02/18 01:00:05;;;;;;;33.00;4.93;;;;;;;6.97;82.07;100721.50;6274451;22;20044;-65
2022/02/18 01:02:32;;;;;;;26.17;4.03;;;;;;;7.07;80.71;100721.53;6275147;22;20314;-65
2022/02/18 01:04:59;;;;;;;30.40;4.93;;;;;;;7.06;80.88;100720.72;6250627;22;20341;-65
2022/02/18 01:07:25;;;;;;;37.33;4.57;;;;;;;6.95;81.32;100715.53;6276954;22;20020;-65
2022/02/18 01:09:55;;;;;;;33.47;4.05;;;;;;;7.09;80.71;100706.41;6276421;22;20039;-65
2022/02/18 01:12:22;;;;;;;33.38;3.95;;;;;;;7.13;80.88;100697.28;6277309;22;20438;-66
2022/02/18 01:14:49;;;;;;;35.65;4.88;;;;;;;7.09;80.97;100694.06;6276244;22;20102;-65
2022/02/18 01:17:16;;;;;;;25.75;3.90;;;;;;;7.07;80.51;100695.16;6276229;22;20026;-65
2022/02/18 01:19:43;;;;;;;34.85;4.97;;;;;;;7.09;79.96;100687.94;6277488;22;20026;-65
2022/02/18 01:22:11;;;;;;;29.98;4.13;;;;;;;7.07;80.32;100682.78;6276179;22;20024;-65
2022/02/18 01:24:38;;;;;;;32.63;5.00;;;;;;;6.92;81.09;100678.84;6276005;22;20457;-65
2022/02/18 01:27:06;;;;;;;33.70;4.60;;;;;;;7.07;80.17;100674.06;6277419;22;20020;-65
2022/02/18 01:29:39;;;;;;;38.45;4.53;;;;;;;7.14;80.23;100677.00;6276041;22;20038;-65
2022/02/18 01:32:07;;;;;;;27.63;3.65;;;;;;;7.19;80.02;100677.44;6276179;22;20037;-65
2022/02/18 01:34:34;;;;;;;36.65;4.95;;;;;;;7.20;80.56;100668.53;6277560;22;20031;-65
2022/02/18 01:37:00;;;;;;;41.47;4.10;;;;;;;7.18;79.79;100660.75;6277642;22;20019;-65
2022/02/18 01:39:27;;;;;;;38.25;4.72;;;;;;;7.21;79.70;100659.66;6277727;22;20019;-65
2022/02/18 01:41:55;;;;;;;24.50;4.15;;;;;;;7.18;79.95;100665.22;6277188;22;20074;-65
2022/02/18 01:44:42;;;;;;;32.85;3.80;;;;;;;7.34;79.65;100646.22;6250897;22;20026;-65
2022/02/18 01:47:16;;;;;;;30.42;4.82;;;;;;;7.25;79.96;100648.69;6277645;22;20094;-66
2022/02/18 01:49:45;;;;;;;27.55;4.72;;;;;;;7.28;79.77;100640.53;6277364;22;20016;-65
2022/02/18 01:52:13;;;;;;;30.05;5.22;;;;;;;7.25;79.75;100637.31;6273550;22;20331;-65
2022/02/18 01:54:40;;;;;;;28.23;4.13;;;;;;;7.19;80.05;100636.06;6275685;22;20043;-65
2022/02/18 01:57:08;;;;;;;33.28;4.05;;;;;;;7.07;80.83;100631.84;6276019;22;20371;-65
2022/02/18 01:59:35;;;;;;;39.33;4.95;;;;;;;7.25;79.90;100627.59;6275965;22;20065;-65
2022/02/18 02:02:02;;;;;;;42.15;4.10;;;;;;;7.39;79.55;100633.47;6277172;22;20027;-65
2022/02/18 02:04:32;;;;;;;36.45;4.18;;;;;;;7.39;79.27;100625.56;6276078;22;20024;-65
2022/02/18 02:07:02;;;;;;;30.75;4.47;;;;;;;7.33;79.79;100629.56;6280462;22;20027;-65
2022/02/18 02:09:30;;;;;;;26.42;4.53;;;;;;;7.36;79.50;100631.09;6255894;22;20045;-65
2022/02/18 02:11:58;;;;;;;29.38;4.60;;;;;;;7.39;79.23;100630.84;6255431;22;20437;-65
2022/02/18 02:14:25;;;;;;;26.90;4.47;;;;;;;7.34;79.34;100628.59;6281484;22;20019;-65
2022/02/18 02:16:52;;;;;;;31.02;4.15;;;;;;;7.33;79.28;100626.09;6255417;22;20094;-65
2022/02/18 02:19:22;;;;;;;25.98;4.13;;;;;;;7.39;79.77;100630.84;6308181;22;20021;-65
2022/02/18 02:21:52;;;;;;;30.00;4.22;;;;;;;7.43;79.40;100626.94;6308151;22;20033;-65
2022/02/18 02:24:20;;;;;;;30.83;3.72;;;;;;;7.44;78.75;100618.91;6308175;22;20019;-65
2022/02/18 02:26:47;;;;;;;35.65;4.70;;;;;;;7.53;78.35;100614.59;6280648;22;20098;-65
2022/02/18 02:29:15;;;;;;;33.45;4.20;;;;;;;7.63;78.39;100614.59;6308020;22;20457;-65
2022/02/18 02:31:45;;;;;;;27.10;4.07;;;;;;;7.58;79.13;100609.72;6255831;22;20019;-65
2022/02/18 02:34:13;;;;;;;35.08;3.92;;;;;;;7.45;79.04;100603.88;6280778;22;20038;-65
2022/02/18 02:36:42;;;;;;;38.78;4.68;;;;;;;7.48;79.12;100598.34;6307005;22;20030;-65
2022/02/18 02:39:10;;;;;;;30.05;4.18;;;;;;;7.32;79.65;100600.69;6307440;22;20069;-65
2022/02/18 02:41:37;;;;;;;36.72;4.88;;;;;;;7.34;79.44;100582.91;6281171;22;20065;-65
2022/02/18 02:44:08;;;;;;;38.97;4.60;;;;;;;7.33;79.93;100578.59;6231544;22;20348;-65
2022/02/18 02:46:36;;;;;;;41.50;4.78;;;;;;;7.35;79.88;100566.94;6307819;22;20015;-65
2022/02/18 02:49:16;;;;;;;35.33;5.05;;;;;;;7.39;79.75;100568.31;6307930;22;20064;-65
2022/02/18 02:51:46;;;;;;;45.97;5.78;;;;;;;7.28;79.34;100568.47;6255836;22;20522;-66
2022/02/18 02:54:14;;;;;;;29.80;4.28;;;;;;;7.31;80.31;100565.53;6255386;22;20023;-65
2022/02/18 02:56:41;;;;;;;37.33;4.50;;;;;;;7.33;79.95;100555.69;6254597;22;20047;-65
2022/02/18 02:59:14;;;;;;;28.98;4.82;;;;;;;7.47;79.69;100559.72;6256413;22;20433;-65
2022/02/18 03:01:44;;;;;;;36.45;4.68;;;;;;;7.32;79.86;100553.19;6279911;22;20025;-65
2022/02/18 03:04:11;;;;;;;45.63;5.32;;;;;;;7.34;80.29;100556.50;6229426;22;20050;-65
2022/02/18 03:06:41;;;;;;;38.80;4.85;;;;;;;7.33;80.15;100558.31;6223851;22;20031;-65
2022/02/18 03:09:11;;;;;;;25.88;4.35;;;;;;;7.39;79.96;100555.13;6275041;22;20038;-65
2022/02/18 03:11:57;;;;;;;31.10;4.38;;;;;;;7.36;80.32;100544.00;6274795;22;20341;-65
2022/02/18 03:14:35;;;;;;;38.35;4.80;;;;;;;7.36;80.09;100536.91;6275270;22;20020;-65
2022/02/18 03:17:05;;;;;;;29.13;4.93;;;;;;;7.37;79.97;100522.75;6276765;22;20098;-65
2022/02/18 03:19:31;;;;;;;35.30;5.13;;;;;;;7.38;80.03;100513.03;6274812;22;20019;-65
2022/02/18 03:22:01;;;;;;;46.25;4.97;;;;;;;7.39;79.65;100499.72;6275022;22;20353;-65
2022/02/18 03:24:30;;;;;;;34.60;4.78;;;;;;;7.39;80.22;100494.44;6276388;22;20030;-65
2022/02/18 03:26:57;;;;;;;41.85;5.20;;;;;;;7.41;80.72;100484.56;6274919;22;20015;-65
2022/02/18 03:29:27;;;;;;;33.63;5.05;;;;;;;7.43;80.11;100481.78;6276627;22;20016;-65
2022/02/18 03:32:14;;;;;;;35.53;4.72;;;;;;;7.42;80.01;100478.31;6275194;22;20016;-66
2022/02/18 03:34:41;;;;;;;44.85;4.88;;;;;;;7.43;79.92;100456.22;6274647;22;20370;-66
2022/02/18 03:37:08;;;;;;;39.63;5.00;;;;;;;7.51;79.28;100450.22;6273827;22;20019;-66
2022/02/18 03:39:36;;;;;;;39.17;4.55;;;;;;;7.54;79.40;100457.06;6249726;22;20016;-66
2022/02/18 03:42:03;;;;;;;30.35;4.88;;;;;;;7.54;79.23;100455.22;6274837;22;20024;-66
2022/02/18 03:44:32;;;;;;;41.40;4.65;;;;;;;7.57;78.96;100462.06;6251424;22;20450;-65
2022/02/18 03:47:03;;;;;;;30.85;4.30;;;;;;;7.53;79.11;100448.31;6280441;22;20019;-65
2022/02/18 03:49:31;;;;;;;37.30;4.55;;;;;;;7.58;78.46;100448.69;6277472;22;20016;-65
2022/02/18 03:51:58;;;;;;;34.15;4.95;;;;;;;7.61;78.21;100432.56;6248487;22;20126;-65
2022/02/18 03:54:26;;;;;;;36.50;5.13;;;;;;;7.58;78.08;100429.38;6249425;22;20019;-66
2022/02/18 03:56:54;;;;;;;29.75;4.45;;;;;;;7.62;77.72;100426.34;6274584;22;20399;-65
2022/02/18 03:59:23;;;;;;;30.98;4.45;;;;;;;7.68;78.22;100424.94;6275086;22;20012;-65
2022/02/18 04:01:51;;;;;;;31.50;4.80;;;;;;;7.64;78.18;100420.88;6275693;22;20107;-66
2022/02/18 04:04:18;;;;;;;34.67;4.75;;;;;;;7.61;77.71;100427.28;6249659;22;20015;-66
2022/02/18 04:07:05;;;;;;;31.60;4.25;;;;;;;7.60;77.92;100422.16;6231296;22;20429;-65
2022/02/18 04:09:41;;;;;;;31.90;4.53;;;;;;;7.54;78.14;100413.00;6276395;22;20016;-65
2022/02/18 04:12:16;;;;;;;33.00;4.28;;;;;;;7.50;78.18;100409.81;6242152;22;20024;-66
2022/02/18 04:14:43;;;;;;;37.42;5.93;;;;;;;7.51;78.09;100402.72;6274710;22;20354;-65
2022/02/18 04:17:15;;;;;;;33.78;4.25;;;;;;;7.54;78.66;100394.53;6274761;22;20039;-65
2022/02/18 04:19:45;;;;;;;32.00;4.45;;;;;;;7.44;78.41;100393.69;6250094;22;20011;-65
2022/02/18 04:22:42;;;;;;;39.85;6.10;;;;;;;7.42;78.72;100395.66;6255424;22;20020;-66
2022/02/18 04:25:11;;;;;;;34.20;4.75;;;;;;;7.54;78.19;100386.59;6276224;22;20016;-66
2022/02/18 04:27:38;;;;;;;36.83;5.03;;;;;;;7.57;78.48;100381.03;6274270;22;20465;-66
2022/02/18 04:30:06;;;;;;;41.97;5.95;;;;;;;7.59;nan;100373.81;6276085;22;20460;-65
2022/02/18 04:32:33;;;;;;;31.13;6.38;;;;;;;7.62;78.08;100365.63;6249454;22;20485;-65
2022/02/18 04:34:59;;;;;;;36.60;6.00;;;;;;;7.66;77.42;100366.97;6274346;22;20027;-66
2022/02/18 04:37:26;;;;;;;36.35;6.25;;;;;;;7.68;77.44;100374.75;6275786;22;20432;-66
2022/02/18 04:39:53;;;;;;;28.17;5.20;;;;;;;7.66;77.15;100366.97;6276464;22;20022;-65
2022/02/18 04:42:20;;;;;;;28.40;4.05;;;;;;;7.67;77.07;100346.69;6276262;22;20453;-65
2022/02/18 04:44:47;;;;;;;29.75;4.70;;;;;;;7.61;77.53;100334.06;6276550;22;20023;-66
2022/02/18 04:47:14;;;;;;;32.92;4.75;;;;;;;7.67;77.17;100315.00;6251409;22;20501;-65
2022/02/18 04:49:43;;;;;;;26.75;3.85;;;;;;;7.55;76.96;100302.97;6276436;22;20034;-66
2022/02/18 04:52:13;;;;;;;32.83;4.65;;;;;;;7.57;77.13;100287.84;6251638;22;20098;-65
2022/02/18 04:54:42;;;;;;;32.17;5.10;;;;;;;7.58;76.74;100278.91;6277767;22;20023;-65
2022/02/18 04:57:09;;;;;;;23.38;3.30;;;;;;;7.54;77.09;100280.19;6277566;22;20015;-66
2022/02/18 04:59:36;;;;;;;29.90;4.00;;;;;;;7.54;76.94;100267.00;6276179;22;20517;-66
2022/02/18 05:02:03;;;;;;;21.88;3.72;;;;;;;7.60;76.82;100263.75;6251340;22;20094;-66
2022/02/18 05:04:30;;;;;;;28.15;4.80;;;;;;;7.69;76.74;100261.09;6276506;22;20027;-66
2022/02/18 05:06:57;;;;;;;22.75;3.70;;;;;;;7.78;75.11;100263.81;6254875;22;20070;-65
2022/02/18 05:09:24;;;;;;;29.00;3.20;;;;;;;7.81;74.65;100258.25;6281747;22;20011;-65
2022/02/18 05:11:50;;;;;;;21.05;3.58;;;;;;;7.86;74.50;100258.63;6256093;22;20027;-66
2022/02/18 05:14:18;;;;;;;35.05;4.28;;;;;;;7.86;74.25;100262.09;6280991;22;20445;-65
2022/02/18 05:16:45;;;;;;;23.75;3.78;;;;;;;7.71;74.53;100241.63;6230713;22;20019;-66
2022/02/18 05:19:12;;;;;;;37.60;4.75;;;;;;;7.67;74.58;100220.78;6255755;22;20331;-66
2022/02/18 05:21:39;;;;;;;31.00;4.30;;;;;;;7.66;74.49;100215.69;6308341;22;20445;-65
2022/02/18 05:24:07;;;;;;;30.23;4.50;;;;;;;7.66;73.80;100208.56;6308716;22;20023;-65
2022/02/18 05:26:34;;;;;;;24.90;4.47;;;;;;;7.72;74.71;100201.88;6281587;22;20019;-65
2022/02/18 05:29:01;;;;;;;26.08;3.50;;;;;;;7.61;74.30;100194.97;6255656;22;20019;-66
2022/02/18 05:31:28;;;;;;;33.17;3.83;;;;;;;7.62;74.42;100182.59;6281392;22;20015;-66
2022/02/18 05:33:55;;;;;;;28.23;4.00;;;;;;;7.62;73.83;100169.41;6255877;22;20419;-66
2022/02/18 05:36:23;;;;;;;31.33;4.50;;;;;;;7.62;74.63;100158.84;6255259;22;20023;-66
2022/02/18 05:38:50;;;;;;;31.17;4.20;;;;;;;7.72;74.23;100153.53;6230439;22;20382;-66
2022/02/18 05:41:16;;;;;;;25.27;4.10;;;;;;;7.66;73.41;100141.75;6230716;22;20027;-65
2022/02/18 05:43:43;;;;;;;34.08;4.45;;;;;;;7.76;72.67;100145.13;6280539;22;20505;-65
2022/02/18 05:46:11;;;;;;;27.70;3.47;;;;;;;7.65;73.65;100137.44;6308354;22;20441;-65
2022/02/18 05:48:38;;;;;;;28.10;4.40;;;;;;;7.63;73.99;100139.41;6255598;22;20090;-65
2022/02/18 05:51:05;;;;;;;28.63;4.03;;;;;;;7.59;73.85;100149.44;6255486;22;20102;-65
2022/02/18 05:53:33;;;;;;;34.58;4.00;;;;;;;7.73;73.70;100134.03;6305405;22;20019;-66
2022/02/18 05:56:02;;;;;;;29.17;4.10;;;;;;;7.54;74.48;100127.94;6307955;22;20022;-66
2022/02/18 05:58:31;;;;;;;20.50;3.33;;;;;;;7.53;74.70;100125.44;6228585;22;20030;-66
2022/02/18 06:00:58;;;;;;;22.92;4.50;;;;;;;7.64;74.97;100120.78;6309944;22;20015;-65
2022/02/18 06:03:25;;;;;;;44.40;5.18;;;;;;;7.60;75.95;100118.56;6255302;22;20095;-65
2022/02/18 06:05:52;;;;;;;26.55;4.43;;;;;;;7.52;75.42;100116.69;6281220;22;20020;-66
2022/02/18 06:08:19;;;;;;;28.80;4.00;;;;;;;7.58;75.41;100112.63;6307254;22;20470;-66
2022/02/18 06:10:45;;;;;;;24.30;3.15;;;;;;;7.50;76.38;100098.34;6255219;22;20022;-65
2022/02/18 06:13:12;;;;;;;24.08;3.60;;;;;;;7.37;76.11;100097.06;6255125;22;20050;-65
2022/02/18 06:15:39;;;;;;;22.42;4.47;;;;;;;7.45;76.98;100095.34;6280952;22;20015;-64
2022/02/18 06:18:05;;;;;;;23.65;3.70;;;;;;;7.39;76.81;100084.56;6307868;22;20023;-64
2022/02/18 06:20:32;;;;;;;24.42;3.63;;;;;;;7.38;77.54;100065.25;6308032;22;20019;-64
2022/02/18 06:22:59;;;;;;;25.75;4.22;;;;;;;7.56;77.58;100062.63;6308301;22;20041;-64
2022/02/18 06:25:25;;;;;;;25.92;4.10;;;;;;;7.60;77.74;100056.03;6307586;22;20441;-64
2022/02/18 06:28:03;;;;;;;27.05;3.78;;;;;;;7.74;78.64;100052.06;6279950;22;20027;-65
2022/02/18 06:30:31;;;;;;;30.10;4.13;;;;;;;7.65;79.50;100047.69;6307626;22;20022;-64
2022/02/18 06:32:58;;;;;;;29.27;4.20;;;;;;;7.62;79.65;100037.41;6255586;22;20026;-65
2022/02/18 06:35:25;;;;;;;24.70;3.80;;;;;;;7.59;80.13;100028.00;6280069;22;20026;-65
2022/02/18 06:37:53;;;;;;;23.58;3.85;;;;;;;7.56;81.52;100016.94;6306554;22;20354;-65
2022/02/18 06:40:19;;;;;;;33.30;6.07;;;;;;;7.39;81.32;100005.41;6254726;22;20038;-65
2022/02/18 06:42:46;;;;;;;28.17;4.22;;;;;;;7.25;82.37;99981.19;6280056;22;20495;-65
2022/02/18 06:45:17;;;;;;;28.77;4.72;;;;;;;7.25;81.89;99983.81;6280127;22;20391;-65
2022/02/18 06:47:46;;;;;;;33.58;4.93;;;;;;;7.27;83.42;99976.59;6280817;22;20015;-65
2022/02/18 06:50:16;;;;;;;26.63;4.45;;;;;;;7.20;83.60;99967.63;6280090;22;20011;-65
2022/02/18 06:52:45;;;;;;;28.77;4.45;;;;;;;7.27;84.14;99965.22;6280022;22;20460;-66
2022/02/18 06:55:12;;;;;;;20.80;4.22;;;;;;;7.18;83.77;99952.94;6306905;22;20023;-66
2022/02/18 06:57:41;;;;;;;32.50;5.00;;;;;;;7.18;84.38;99942.38;6254389;22;20141;-65
2022/02/18 07:00:10;;;;;;;32.72;4.18;;;;;;;7.34;83.89;99939.06;6307008;22;20323;-66
2022/02/18 07:02:38;;;;;;;32.70;5.03;;;;;;;7.13;83.88;99928.81;6307462;22;20073;-65
2022/02/18 07:05:21;;;;;;;31.60;4.28;;;;;;;7.20;83.77;99922.78;6279127;22;20042;-65
2022/02/18 07:07:48;;;;;;;33.58;4.90;;;;;;;7.25;83.51;99923.16;6228303;22;20023;-66
2022/02/18 07:10:15;;;;;;;30.15;4.63;;;;;;;7.22;83.34;99915.56;6229310;22;20026;-65
2022/02/18 07:12:42;;;;;;;26.30;4.63;;;;;;;7.28;83.06;99914.94;6254071;22;20019;-65
2022/02/18 07:15:10;;;;;;;37.47;4.55;;;;;;;7.38;83.53;99899.00;6254386;22;20034;-65
2022/02/18 07:17:37;;;;;;;27.02;4.03;;;;;;;7.31;84.72;99895.31;6307329;22;20022;-65
2022/02/18 07:20:08;;;;;;;30.08;4.13;;;;;;;7.30;84.34;99891.88;6253932;22;20011;-65
2022/02/18 07:22:36;;;;;;;35.30;4.65;;;;;;;7.39;83.67;99889.31;6279844;22;20094;-65
2022/02/18 07:25:05;;;;;;;31.88;5.18;;;;;;;7.26;84.25;99884.44;6280135;22;20015;-66
2022/02/18 07:27:33;;;;;;;34.58;4.18;;;;;;;7.18;85.17;99871.97;6307032;22;20437;-66
2022/02/18 07:30:01;;;;;;;30.83;4.75;;;;;;;7.21;84.13;99876.13;6280059;22;20035;-65
2022/02/18 07:32:28;;;;;;;32.75;4.20;;;;;;;7.23;84.57;99861.81;6280430;22;20019;-65
2022/02/18 07:34:55;;;;;;;35.35;4.85;;;;;;;7.27;84.39;99846.50;6254396;22;20026;-66
2022/02/18 07:37:21;;;;;;;37.28;5.03;;;;;;;7.21;85.11;99850.59;6253608;22;20023;-65
2022/02/18 07:39:48;;;;;;;39.95;5.15;;;;;;;7.14;85.51;99831.06;6307096;22;20022;-66
2022/02/18 07:42:15;;;;;;;36.08;5.38;;;;;;;7.38;84.66;99834.84;6305933;22;20019;-65
2022/02/18 07:44:44;;;;;;;31.50;4.55;;;;;;;7.42;84.29;99815.09;6255405;22;20069;-65
2022/02/18 07:47:10;;;;;;;28.85;4.22;;;;;;;7.43;85.38;99811.47;6307034;22;20045;-66
2022/02/18 07:49:47;;;;;;;37.20;5.57;;;;;;;7.43;85.41;99801.75;6306754;22;20499;-65
2022/02/18 07:52:15;;;;;;;31.65;4.55;;;;;;;7.32;85.22;99795.91;6279597;22;20019;-66
2022/02/18 07:54:42;;;;;;;42.65;5.55;;;;;;;7.44;85.26;99795.50;6277210;22;20388;-66
2022/02/18 07:57:08;;;;;;;34.35;4.65;;;;;;;7.57;84.02;99789.78;6279203;22;20019;-65
2022/02/18 07:59:35;;;;;;;29.10;4.57;;;;;;;7.64;83.82;99784.69;6252521;22;20042;-66
2022/02/18 08:02:02;;;;;;;35.53;4.88;;;;;;;7.84;83.74;99769.41;6305939;22;20045;-65
2022/02/18 08:04:29;;;;;;;31.48;5.65;;;;;;;7.86;83.31;99762.19;6228313;22;20054;-67
2022/02/18 08:06:59;;;;;;;41.38;6.18;;;;;;;7.97;82.52;99746.03;6280143;22;20047;-65
2022/02/18 08:09:25;;;;;;;28.15;4.95;;;;;;;7.88;83.43;99750.47;6306932;22;20393;-65
2022/02/18 08:11:52;;;;;;;29.20;3.97;;;;;;;7.85;82.65;99749.94;6280724;22;20330;-65
2022/02/18 08:14:19;;;;;;;26.65;4.43;;;;;;;7.95;83.01;99732.16;6281475;22;20033;-66
2022/02/18 08:16:46;;;;;;;28.20;5.38;;;;;;;8.12;81.76;99737.47;6281952;22;20052;-65
2022/02/18 08:19:13;;;;;;;29.40;5.95;;;;;;;8.20;81.52;99732.19;6279837;22;20047;-64
2022/02/18 08:21:39;;;;;;;35.40;6.03;;;;;;;8.21;82.01;99718.81;6208752;22;20027;-65
2022/02/18 08:24:06;;;;;;;33.22;4.88;;;;;;;8.40;80.89;99719.50;6256014;22;20033;-65
2022/02/18 08:26:33;;;;;;;32.90;5.30;;;;;;;8.55;80.20;99717.88;6255959;22;20019;-65
2022/02/18 08:29:00;;;;;;;30.75;4.95;;;;;;;8.48;80.94;99716.91;6281627;22;20019;-65
2022/02/18 08:31:27;;;;;;;31.17;5.57;;;;;;;8.46;81.51;99705.66;6308647;22;20070;-65
2022/02/18 08:33:53;;;;;;;29.48;4.95;;;;;;;8.54;80.47;99705.66;6280789;22;20402;-65
2022/02/18 08:36:20;;;;;;;23.60;4.20;;;;;;;8.51;80.55;99699.88;6280121;22;20023;-65
2022/02/18 08:38:49;;;;;;;29.45;6.00;;;;;;;8.51;80.09;99699.88;6256311;22;20428;-66
2022/02/18 08:41:15;;;;;;;30.55;5.05;;;;;;;8.75;79.71;99686.66;6255056;22;20094;-66
2022/02/18 08:43:44;;;;;;;27.38;4.60;;;;;;;8.69;79.91;99684.66;6305549;22;20098;-67
2022/02/18 08:46:11;;;;;;;30.45;5.65;;;;;;;8.74;80.54;99678.88;6254968;22;20030;-66
2022/02/18 08:48:38;;;;;;;29.60;4.63;;;;;;;8.84;79.40;99672.41;6280020;22;20027;-66
2022/02/18 08:51:05;;;;;;;32.85;5.35;;;;;;;8.80;80.07;99665.81;6255701;22;20015;-65
2022/02/18 08:53:32;;;;;;;30.30;5.13;;;;;;;8.78;79.47;99667.78;6307477;22;20081;-65
2022/02/18 08:55:59;;;;;;;26.00;5.68;;;;;;;8.85;80.34;99662.66;6253997;22;20345;-65
2022/02/18 08:58:30;;;;;;;34.47;5.25;;;;;;;9.04;79.51;99656.16;6279508;22;20023;-65
2022/02/18 09:00:57;;;;;;;27.38;4.55;;;;;;;9.14;79.12;99648.84;6255579;22;20073;-65
2022/02/18 09:03:24;;;;;;;28.25;4.95;;;;;;;9.06;79.88;99659.47;6307594;22;20353;-66
2022/02/18 09:05:51;;;;;;;32.90;4.60;;;;;;;9.19;79.33;99649.16;6303357;22;20027;-66
2022/02/18 09:08:21;;;;;;;22.13;3.70;;;;;;;9.13;79.40;99649.00;6280469;22;20027;-66
2022/02/18 09:10:50;;;;;;;23.05;4.35;;;;;;;9.19;79.23;99643.03;6254107;22;20457;-66
2022/02/18 09:13:16;;;;;;;22.65;4.65;;;;;;;9.12;80.23;99634.13;6279896;22;20027;-66
2022/02/18 09:15:44;;;;;;;27.63;4.57;;;;;;;9.14;79.98;99629.50;6236777;22;20041;-66
2022/02/18 09:18:16;;;;;;;;;;;;;;;9.22;79.87;99619.69;6281621;22;20039;-66
2022/02/18 09:20:45;;;;;;;20.55;4.45;;;;;;;9.30;80.22;99613.53;6279128;22;20009;-66
2022/02/18 09:23:12;;;;;;;23.00;5.10;;;;;;;9.44;79.87;99603.19;6253580;22;20015;-66
2022/02/18 09:25:40;;;;;;;25.80;4.55;;;;;;;9.45;79.88;99603.03;6306801;22;20022;-66
2022/02/18 09:28:08;;;;;;;25.73;4.00;;;;;;;9.44;80.23;99597.91;6280423;22;20019;-66
2022/02/18 09:30:41;;;;;;;27.17;4.38;;;;;;;9.44;80.83;99606.69;6254266;22;20460;-66
2022/02/18 09:33:15;;;;;;;24.70;4.05;;;;;;;9.55;79.31;99598.34;6232667;22;20475;-66
2022/02/18 09:35:42;;;;;;;26.55;3.70;;;;;;;9.37;80.34;99592.50;6306601;22;20069;-66
2022/02/18 09:38:09;;;;;;;21.92;3.80;;;;;;;9.43;80.40;99583.84;6305011;22;20023;-66
2022/02/18 09:40:37;;;;;;;22.77;4.20;;;;;;;9.33;81.42;99580.59;6307137;22;20016;-66
2022/02/18 09:43:04;;;;;;;18.90;4.05;;;;;;;9.51;80.70;99569.75;6254081;22;20027;-65
2022/02/18 09:45:31;;;;;;;21.42;4.22;;;;;;;9.46;80.84;99559.69;6263886;22;20081;-66
2022/02/18 09:48:00;;;;;;;20.58;3.90;;;;;;;9.54;80.19;99556.16;6253089;22;20053;-66
2022/02/18 09:50:28;;;;;;;20.92;4.20;;;;;;;9.47;80.50;99547.28;6278702;22;20022;-66
2022/02/18 09:53:14;;;;;;;18.90;4.60;;;;;;;9.45;81.00;99539.50;6261224;22;20065;-66
2022/02/18 09:55:44;;;;;;;17.33;4.20;;;;;;;9.54;80.72;99527.84;6252687;22;20015;-66
2022/02/18 09:58:12;;;;;;;22.15;4.00;;;;;;;9.58;80.29;99515.91;6306364;22;20354;-66
2022/02/18 10:00:39;;;;;;;17.30;3.17;;;;;;;9.43;81.47;99516.88;6280029;22;20018;-66
2022/02/18 10:03:08;;;;;;;17.77;3.60;;;;;;;9.53;81.07;99518.28;6253871;22;20019;-66
2022/02/18 10:05:38;;;;;;;19.33;4.05;;;;;;;9.54;81.13;99509.31;6248576;22;20042;-66
2022/02/18 10:08:11;;;;;;;16.83;3.60;;;;;;;9.61;81.54;99504.97;6273934;22;20019;-66
2022/02/18 10:10:40;;;;;;;12.27;3.05;;;;;;;9.63;81.71;99498.69;6275963;22;20015;-66
2022/02/18 10:13:28;;;;;;;13.15;3.40;;;;;;;9.60;82.27;99494.53;6224089;22;20023;-66
2022/02/18 10:15:57;;;;;;;13.98;3.28;;;;;;;9.59;82.49;99496.38;6249504;22;20098;-65
2022/02/18 10:18:26;;;;;;;14.50;3.65;;;;;;;9.69;81.62;99485.53;6275638;22;20019;-65
2022/02/18 10:20:54;;;;;;;14.50;3.75;;;;;;;9.80;81.56;99497.53;6249158;22;20016;-66
2022/02/18 10:23:22;;;;;;;11.13;3.25;;;;;;;9.86;81.48;99488.03;6248560;22;20027;-65
2022/02/18 10:25:52;;;;;;;14.45;3.33;;;;;;;9.84;81.98;99479.44;6274381;22;20027;-65
2022/02/18 10:28:21;;;;;;;11.90;3.22;;;;;;;9.79;82.01;99472.06;6247835;22;20099;-66
2022/02/18 10:31:00;;;;;;;14.95;3.42;;;;;;;9.87;81.96;99468.50;6274568;22;20039;-66
2022/02/18 10:33:27;;;;;;;16.15;3.30;;;;;;;9.99;81.54;99475.00;6274308;22;20016;-66
2022/02/18 10:36:01;;;;;;;12.60;3.35;;;;;;;10.03;81.55;99455.09;6272780;22;20397;-66
2022/02/18 10:41:18;;;;;;;13.32;3.60;;;;;;;10.15;81.61;99440.38;5110075;27;20128;-65
2022/02/18 10:43:46;;;;;;;11.85;3.30;;;;;;;10.23;81.88;99441.31;5056629;28;20043;-65
2022/02/18 10:46:16;;;;;;;12.10;3.55;;;;;;;10.26;81.71;99433.81;5061507;28;20059;-66
2022/02/18 10:48:48;;;;;;;10.77;3.30;;;;;;;10.35;81.09;99435.38;5054962;28;20068;-66
2022/02/18 10:51:22;;;;;;;10.70;3.53;;;;;;;10.34;81.57;99423.13;5089184;28;20036;-66
2022/02/18 10:53:50;;;;;;;10.20;2.63;;;;;;;10.48;81.18;99421.47;5055962;28;20028;-65
2022/02/18 10:56:20;;;;;;;6.75;2.30;;;;;;;10.59;80.94;99432.59;5085555;28;20128;-65
2022/02/18 10:58:49;;;;;;;8.52;2.00;;;;;;;10.86;80.02;99408.03;5076012;28;20518;-65
2022/02/18 11:01:20;;;;;;;3.78;0.93;;;;;;;11.09;78.79;99391.09;5066867;28;20052;-65
2022/02/18 11:03:49;;;;;;;3.97;1.20;;;;;;;11.25;78.31;99396.13;5064221;28;20082;-65
2022/02/18 11:06:32;;;;;;;2.63;1.00;;;;;;;11.44;77.25;99385.84;5083134;28;20491;-65
2022/02/18 11:11:44;;;;;;;3.83;1.33;;;;;;;11.59;77.14;99383.94;5129303;27;20724;-66
2022/02/18 11:14:14;;;;;;;1.73;0.90;;;;;;;11.73;76.17;99374.22;5129874;27;20050;-66
2022/02/18 11:16:44;;;;;;;1.95;0.98;;;;;;;11.82;75.51;99358.94;5104839;27;20407;-65
2022/02/18 11:19:12;;;;;;;2.85;1.00;;;;;;;11.89;75.16;99359.81;5123071;27;20488;-66
2022/02/18 11:21:45;;;;;;;0.98;0.80;;;;;;;11.88;75.56;99350.19;5127628;27;20445;-66
2022/02/18 11:24:15;;;;;;;2.08;0.98;;;;;;;11.86;75.22;99336.25;5135247;27;20043;-65
2022/02/18 11:26:44;;;;;;;1.45;0.82;;;;;;;11.96;74.99;99330.66;5129002;27;20054;-65
2022/02/18 11:29:11;;;;;;;1.05;0.90;;;;;;;11.97;74.09;99308.34;5127145;27;20054;-65
2022/02/18 11:31:43;;;;;;;2.88;1.08;;;;;;;12.01;74.38;99297.13;5108376;28;20419;-65
2022/02/18 11:34:41;;;;;;;2.05;0.90;;;;;;;11.99;74.00;99296.53;5104724;28;20426;-65
2022/02/18 11:37:38;;;;;;;1.92;0.90;;;;;;;12.09;73.07;99283.66;5118538;27;20059;-65
2022/02/18 11:40:43;;;;;;;3.53;1.08;;;;;;;12.07;73.19;99283.03;5120455;27;20050;-66
2022/02/18 11:43:34;;;;;;;2.38;1.10;;;;;;;12.15;72.99;99275.91;5123680;27;20123;-65